Time;durP1;ratioP1;P1;durP2;ratioP2;P2;SDS_P1;SDS_P2;PMS_P1;PMS_P2;Temp;Humidity;BMP_temperature;BMP_pressure;BME280_temperature;BME280_humidity;BME280_pressure;Samples;Min_cycle;Max_cycle;Signal;HPM_P1;HPM_P2
2022/08/31 00:05:55;;;;;;;2.92;1.50;;;;;;;;;;4952132;29;20679;-78
2022/08/31 00:08:21;;;;;;;3.83;1.38;;;;;;;;;;4939329;29;20039;-77
2022/08/31 00:10:48;;;;;;;4.20;1.60;;;;;;;16.86;76.12;68650.81;4955062;29;20058;-78
2022/08/31 00:13:13;;;;;;;4.18;1.85;;;;;;;;;;4956711;29;20043;-75
2022/08/31 00:15:39;;;;;;;3.10;1.50;;;;;;;16.84;76.06;68645.28;4954196;29;20047;-77
2022/08/31 00:18:05;;;;;;;3.83;1.52;;;;;;;16.76;76.17;68636.13;4955685;29;20050;-78
2022/08/31 00:20:30;;;;;;;3.33;1.45;;;;;;;16.73;76.08;68633.28;4955254;29;20039;-78
2022/08/31 00:22:56;;;;;;;2.05;1.27;;;;;;;16.71;76.20;68633.69;4955107;29;20059;-76
2022/08/31 00:25:21;;;;;;;3.88;1.50;;;;;;;;;;4955213;29;20450;-77
2022/08/31 00:27:46;;;;;;;3.60;1.50;;;;;;;16.63;76.23;68622.44;4955791;29;20047;-79
2022/08/31 00:30:12;;;;;;;2.70;1.33;;;;;;;16.61;76.19;68620.16;4955406;29;20043;-77
2022/08/31 00:32:38;;;;;;;2.17;1.42;;;;;;;16.62;75.75;68620.72;4956289;29;20780;-78
2022/08/31 00:35:05;;;;;;;3.88;1.90;;;;;;;16.58;76.09;68616.19;4954471;29;20146;-77
2022/08/31 00:37:31;;;;;;;4.10;1.30;;;;;;;;;;4955769;29;20036;-78
2022/08/31 00:39:56;;;;;;;2.55;1.60;;;;;;;;;;4954569;29;20059;-77
2022/08/31 00:42:22;;;;;;;3.58;1.40;;;;;;;16.48;75.54;68605.34;4956312;29;20046;-79
2022/08/31 00:44:47;;;;;;;2.58;1.40;;;;;;;;;;4953673;29;20521;-79
2022/08/31 00:47:14;;;;;;;2.30;1.48;;;;;;;16.40;75.38;68596.22;4955032;28;20086;-77
2022/08/31 00:49:40;;;;;;;3.95;1.40;;;;;;;;;;4955350;29;20035;-78
2022/08/31 00:52:13;;;;;;;2.83;1.30;;;;;;;16.39;74.88;68595.66;4957085;29;20040;-76
2022/08/31 00:54:41;;;;;;;3.40;1.42;;;;;;;;;;4956799;29;20473;-78
2022/08/31 00:57:08;;;;;;;2.63;1.40;;;;;;;16.36;74.51;68591.66;4953680;28;20070;-77
2022/08/31 00:59:34;;;;;;;2.65;1.55;;;;;;;16.32;74.58;68582.31;4954145;29;20136;-79
2022/08/31 01:02:00;;;;;;;4.72;1.48;;;;;;;16.27;74.29;68576.59;4954898;29;20039;-79
2022/08/31 01:04:25;;;;;;;2.78;1.17;;;;;;;16.28;73.98;68582.53;4956401;29;20039;-76
2022/08/31 01:06:51;;;;;;;2.97;1.20;;;;;;;;;;4952824;28;20063;-79
2022/08/31 01:09:18;;;;;;;2.65;1.50;;;;;;;;;;4955099;29;20043;-79
2022/08/31 01:11:43;;;;;;;3.15;1.30;;;;;;;;;;4955174;29;20035;-75
2022/08/31 01:14:09;;;;;;;2.88;1.20;;;;;;;16.14;73.63;68569.81;4954974;29;20054;-79
2022/08/31 01:16:41;;;;;;;5.68;1.63;;;;;;;;;;4954508;29;20039;-77
2022/08/31 01:19:10;;;;;;;4.22;1.15;;;;;;;;;;4953482;29;20055;-78
2022/08/31 01:21:40;;;;;;;3.95;1.20;;;;;;;;;;4952382;29;20043;-78
2022/08/31 01:24:06;;;;;;;3.33;1.20;;;;;;;16.05;72.73;68551.53;4951321;29;20106;-77
2022/08/31 01:26:32;;;;;;;1.30;1.10;;;;;;;15.99;72.36;68551.19;4952454;28;20036;-77
2022/08/31 01:29:01;;;;;;;1.75;1.00;;;;;;;16.00;71.99;68552.34;4950946;28;20038;-78
2022/08/31 01:31:39;;;;;;;3.65;1.17;;;;;;;15.94;71.80;68544.91;4952694;29;20039;-77
2022/08/31 01:34:05;;;;;;;3.47;1.10;;;;;;;15.94;71.21;68545.50;4952966;29;20517;-77
2022/08/31 01:36:31;;;;;;;1.73;0.95;;;;;;;;;;4951765;29;20047;-78
2022/08/31 01:38:56;;;;;;;1.75;0.82;;;;;;;15.89;70.55;68531.75;4952930;29;20042;-78
2022/08/31 01:41:22;;;;;;;2.17;0.82;;;;;;;15.89;70.75;68539.81;4951588;29;20051;-78
2022/08/31 01:43:48;;;;;;;2.55;0.80;;;;;;;;;;4953199;29;20096;-76
2022/08/31 01:46:14;;;;;;;2.35;0.93;;;;;;;15.81;70.77;68530.13;4951313;29;20055;-78
2022/08/31 01:48:41;;;;;;;2.85;0.90;;;;;;;;;;4952371;29;20122;-78
2022/08/31 01:51:08;;;;;;;4.43;0.90;;;;;;;15.78;70.52;68521.91;4950141;28;20047;-78
2022/08/31 01:53:33;;;;;;;2.72;1.25;;;;;;;15.76;70.41;68524.97;4953142;29;20047;-78
2022/08/31 01:55:59;;;;;;;2.58;0.85;;;;;;;;;;4951673;29;20039;-79
2022/08/31 01:58:24;;;;;;;1.58;0.80;;;;;;;15.77;70.34;68526.13;4952987;29;20149;-78
2022/08/31 02:00:49;;;;;;;2.55;0.95;;;;;;;;;;4951165;29;20524;-77
2022/08/31 02:03:15;;;;;;;2.70;0.70;;;;;;;15.66;70.59;68513.56;4949691;29;20126;-78
2022/08/31 02:05:40;;;;;;;1.48;0.80;;;;;;;15.60;70.60;68501.38;4951548;29;20506;-77
2022/08/31 02:08:07;;;;;;;2.05;1.00;;;;;;;;;;4951218;29;20379;-79
2022/08/31 02:10:32;;;;;;;3.17;0.95;;;;;;;15.52;70.61;68498.19;4935653;29;20129;-78
2022/08/31 02:12:58;;;;;;;2.10;0.70;;;;;;;;;;4952072;29;20578;-78
2022/08/31 02:15:24;;;;;;;1.15;0.75;;;;;;;15.46;70.55;68491.34;4952185;29;20187;-79
2022/08/31 02:17:49;;;;;;;1.73;0.80;;;;;;;;;;4968364;23;20045;-79
2022/08/31 02:20:15;;;;;;;1.38;0.70;;;;;;;;;;4933471;28;20048;-79
2022/08/31 02:22:40;;;;;;;3.40;0.80;;;;;;;15.39;70.29;68478.56;4909656;29;20124;-79
2022/08/31 02:25:07;;;;;;;2.38;1.00;;;;;;;15.37;70.48;68481.09;4910231;29;20048;-78
2022/08/31 02:27:33;;;;;;;1.13;0.70;;;;;;;15.32;70.38;68476.53;4930217;29;20040;-79
2022/08/31 02:29:58;;;;;;;2.03;0.82;;;;;;;;;;4930332;29;20579;-79
2022/08/31 02:32:23;;;;;;;1.15;0.60;;;;;;;;;;4935398;29;20099;-79
2022/08/31 02:34:49;;;;;;;3.35;0.90;;;;;;;15.22;70.04;68465.16;4934674;29;20051;-79
2022/08/31 02:37:16;;;;;;;3.25;0.77;;;;;;;15.15;70.42;68451.25;4936198;29;20107;-79
2022/08/31 02:39:41;;;;;;;1.95;1.00;;;;;;;15.15;70.34;68456.59;4917282;29;20043;-79
2022/08/31 02:42:06;;;;;;;1.88;0.80;;;;;;;;;;4932543;29;20119;-79
2022/08/31 02:44:32;;;;;;;2.30;1.08;;;;;;;;;;4935334;29;20059;-79
2022/08/31 02:46:57;;;;;;;1.75;0.77;;;;;;;;;;4931986;29;20078;-79
2022/08/31 02:49:23;;;;;;;2.70;0.70;;;;;;;15.05;70.08;68441.00;4932105;29;20067;-79
2022/08/31 02:51:48;;;;;;;1.45;0.70;;;;;;;15.02;69.85;68442.38;4936203;29;20054;-79
2022/08/31 02:54:14;;;;;;;1.77;0.70;;;;;;;14.99;70.31;68438.94;4917568;29;20123;-79
2022/08/31 02:56:39;;;;;;;1.52;0.90;;;;;;;14.96;70.26;68436.13;4934154;29;20119;-79
2022/08/31 02:59:05;;;;;;;0.65;0.55;;;;;;;14.92;69.95;68426.19;4934759;29;20032;-79
2022/08/31 03:01:31;;;;;;;2.35;0.80;;;;;;;14.91;70.43;68430.41;4930183;29;20166;-78
2022/08/31 03:03:56;;;;;;;1.70;0.63;;;;;;;14.92;70.16;68431.53;4932126;29;20059;-78
2022/08/31 03:06:22;;;;;;;1.45;0.60;;;;;;;14.93;69.99;68434.78;4930868;29;20043;-79
2022/08/31 03:08:48;;;;;;;1.17;0.70;;;;;;;14.86;70.17;68424.72;4931265;29;20123;-79
2022/08/31 03:11:15;;;;;;;2.13;0.82;;;;;;;14.83;69.98;68421.31;4932108;29;20090;-79
2022/08/31 03:13:41;;;;;;;2.13;0.80;;;;;;;14.82;70.31;68426.09;4932510;29;20051;-79
2022/08/31 03:16:07;;;;;;;2.80;0.82;;;;;;;14.80;70.73;68417.88;4914466;29;20060;-79
2022/08/31 03:18:33;;;;;;;1.55;0.68;;;;;;;;;;4930830;29;20043;-79
2022/08/31 03:20:58;;;;;;;1.27;0.65;;;;;;;14.76;70.68;68413.31;4928841;29;20106;-78
2022/08/31 03:23:24;;;;;;;1.33;0.80;;;;;;;14.72;70.99;68408.78;4931369;29;20122;-79
2022/08/31 03:25:49;;;;;;;1.48;0.68;;;;;;;;;;4932213;29;20110;-79
2022/08/31 03:28:15;;;;;;;4.22;0.80;;;;;;;14.62;71.06;68398.53;4936953;29;20057;-79
2022/08/31 03:30:40;;;;;;;2.60;0.70;;;;;;;;;;4936123;29;20050;-79
2022/08/31 03:33:06;;;;;;;2.42;1.02;;;;;;;14.53;71.34;68390.38;4937324;29;20566;-79
2022/08/31 03:35:31;;;;;;;1.63;1.00;;;;;;;14.50;71.43;68386.94;4933103;29;20047;-78
2022/08/31 03:37:57;;;;;;;2.00;0.70;;;;;;;14.44;71.03;68378.59;4935227;29;20174;-79
2022/08/31 03:40:22;;;;;;;1.25;0.70;;;;;;;14.41;71.30;68374.59;4932903;29;20129;-79
2022/08/31 03:42:48;;;;;;;1.63;0.82;;;;;;;14.41;71.23;68374.59;4935475;29;20040;-78
2022/08/31 03:45:14;;;;;;;2.20;0.90;;;;;;;14.36;71.33;68363.56;4934040;29;20040;-79
2022/08/31 03:47:40;;;;;;;1.80;0.80;;;;;;;14.28;71.28;68365.72;4915531;29;20051;-79
2022/08/31 03:50:06;;;;;;;1.42;0.65;;;;;;;;;;4930364;29;20855;-79
2022/08/31 03:52:32;;;;;;;1.77;0.70;;;;;;;14.29;71.04;68363.63;4928140;29;20040;-79
2022/08/31 03:54:58;;;;;;;1.20;0.80;;;;;;;14.30;71.40;68362.06;4933726;29;20047;-79
2022/08/31 03:57:24;;;;;;;1.25;0.68;;;;;;;14.18;71.14;68349.56;4933620;29;20115;-79
2022/08/31 03:59:56;;;;;;;3.03;0.50;;;;;;;14.16;71.44;68349.97;4916346;29;20094;-79
2022/08/31 04:02:22;;;;;;;2.25;0.63;;;;;;;14.11;70.99;68341.59;4932982;29;20411;-78
2022/08/31 04:04:51;;;;;;;2.08;0.60;;;;;;;;;;4933813;29;20175;-78
2022/08/31 04:07:17;;;;;;;2.20;0.80;;;;;;;;;;4931798;29;20043;-79
2022/08/31 04:09:43;;;;;;;2.95;0.80;;;;;;;14.06;71.13;68338.00;4929146;29;20067;-79
2022/08/31 04:12:09;;;;;;;0.90;0.50;;;;;;;14.06;71.32;68335.91;4933933;29;20054;-79
2022/08/31 04:14:34;;;;;;;2.38;0.60;;;;;;;14.03;71.36;68331.91;4927515;29;20044;-79
2022/08/31 04:16:59;;;;;;;2.90;0.88;;;;;;;;;;4933054;29;20513;-78
2022/08/31 04:19:25;;;;;;;2.08;0.90;;;;;;;13.97;71.10;68325.66;4935090;29;20079;-79
2022/08/31 04:21:50;;;;;;;2.25;0.82;;;;;;;13.97;71.44;68320.31;4930533;29;20048;-79
2022/08/31 04:24:16;;;;;;;1.00;0.68;;;;;;;13.91;71.16;68318.84;4927225;29;20044;-78
2022/08/31 04:26:41;;;;;;;3.85;0.80;;;;;;;13.94;71.13;68316.88;4930205;29;20398;-78
2022/08/31 04:29:07;;;;;;;2.60;1.00;;;;;;;;;;4929475;29;20040;-78
2022/08/31 04:31:35;;;;;;;2.35;0.60;;;;;;;13.88;71.37;68315.41;4931916;29;20043;-78
2022/08/31 04:34:00;;;;;;;1.17;0.65;;;;;;;13.91;70.86;68319.41;4931152;29;20051;-79
2022/08/31 04:36:27;;;;;;;4.50;0.95;;;;;;;13.85;71.21;68317.34;4932208;29;20035;-79
2022/08/31 04:38:56;;;;;;;2.72;0.70;;;;;;;13.83;71.23;68304.38;4930004;29;20044;-78
2022/08/31 04:41:23;;;;;;;;;;;;;;;13.82;71.09;68309.16;4932731;29;20083;-78
2022/08/31 04:43:51;;;;;;;2.92;0.82;;;;;;;13.73;71.42;68299.50;4932433;29;19958;-79
2022/08/31 04:46:17;;;;;;;2.80;1.00;;;;;;;;;;4930683;29;20052;-79
2022/08/31 04:48:42;;;;;;;1.50;0.60;;;;;;;;;;4934371;29;20066;-79
2022/08/31 04:51:11;;;;;;;1.35;0.70;;;;;;;13.66;71.51;68290.94;4932727;29;20043;-79
2022/08/31 04:53:37;;;;;;;1.97;0.90;;;;;;;;;;4934120;29;20043;-78
2022/08/31 04:56:13;;;;;;;4.40;0.70;;;;;;;13.62;71.65;68286.41;4933417;29;20303;-78
2022/08/31 04:58:43;;;;;;;3.83;0.88;;;;;;;13.60;71.76;68287.38;4933683;29;20054;-80
2022/08/31 05:01:09;;;;;;;4.57;0.80;;;;;;;;;;4931666;29;20040;-79
2022/08/31 05:03:34;;;;;;;2.35;0.70;;;;;;;13.59;71.62;68283.56;4925783;29;20978;-79
2022/08/31 05:06:00;;;;;;;2.13;0.85;;;;;;;13.62;71.15;68292.31;4924763;29;20507;-78
2022/08/31 05:08:26;;;;;;;3.03;0.90;;;;;;;13.61;71.52;68285.84;4935187;29;20253;-78
2022/08/31 05:10:52;;;;;;;5.00;0.88;;;;;;;;;;4932903;29;20066;-78
2022/08/31 05:13:17;;;;;;;3.92;0.90;;;;;;;;;;4934514;29;20076;-78
2022/08/31 05:15:43;;;;;;;1.15;0.68;;;;;;;13.60;71.81;68284.13;4929286;29;20074;-78
2022/08/31 05:18:10;;;;;;;1.65;0.70;;;;;;;13.66;71.70;68290.94;4918309;29;22053;-78
2022/08/31 05:20:37;;;;;;;1.75;0.60;;;;;;;13.66;71.42;68290.94;4939182;29;20063;-79
2022/08/31 05:23:02;;;;;;;2.35;0.70;;;;;;;13.69;71.64;68294.94;4933946;29;20031;-78
2022/08/31 05:25:28;;;;;;;2.90;0.70;;;;;;;13.67;71.77;68292.66;4941034;29;20035;-79
2022/08/31 05:27:54;;;;;;;1.60;0.75;;;;;;;13.70;71.63;68296.06;4939712;29;20050;-78
2022/08/31 05:30:19;;;;;;;1.63;0.70;;;;;;;;;;4938846;29;20508;-78
2022/08/31 05:32:45;;;;;;;2.13;0.70;;;;;;;13.72;71.91;68298.34;4939285;29;20036;-78
2022/08/31 05:35:11;;;;;;;2.67;1.00;;;;;;;13.73;71.78;68302.16;4932698;29;20062;-79
2022/08/31 05:37:36;;;;;;;1.48;0.68;;;;;;;13.72;71.79;68298.34;4935227;29;20063;-78
2022/08/31 05:40:02;;;;;;;2.47;0.70;;;;;;;13.76;71.71;68302.34;4919348;29;20108;-79
2022/08/31 05:42:28;;;;;;;4.03;0.95;;;;;;;;;;4934298;29;20046;-78
2022/08/31 05:44:53;;;;;;;1.95;0.85;;;;;;;13.81;71.13;68307.44;4935818;29;20047;-79
2022/08/31 05:47:18;;;;;;;1.48;0.80;;;;;;;;;;4931637;29;20043;-78
2022/08/31 05:49:45;;;;;;;1.58;0.55;;;;;;;13.80;71.41;68306.31;4937370;29;20133;-78
2022/08/31 05:52:10;;;;;;;1.33;0.63;;;;;;;13.81;71.49;68310.13;4934308;29;20058;-78
2022/08/31 05:54:36;;;;;;;1.65;0.52;;;;;;;;;;4933860;29;20400;-78
2022/08/31 05:57:02;;;;;;;5.30;0.80;;;;;;;;;;4934872;29;20052;-78
2022/08/31 05:59:29;;;;;;;2.83;0.73;;;;;;;13.86;71.36;68305.13;4937051;29;20100;-78
2022/08/31 06:01:55;;;;;;;1.27;0.70;;;;;;;;;;4932839;29;20044;-79
2022/08/31 06:04:20;;;;;;;2.85;0.85;;;;;;;13.83;71.43;68310.28;4937032;29;20044;-78
2022/08/31 06:06:45;;;;;;;1.70;0.60;;;;;;;;;;4936674;29;20233;-78
2022/08/31 06:09:11;;;;;;;2.67;0.85;;;;;;;13.88;71.57;68315.41;4936098;29;20072;-78
2022/08/31 06:11:39;;;;;;;2.72;0.80;;;;;;;13.95;71.73;68323.38;4937556;29;20051;-78
2022/08/31 06:14:05;;;;;;;2.45;0.80;;;;;;;13.95;71.72;68323.38;4936406;29;20482;-78
2022/08/31 06:16:31;;;;;;;1.63;0.75;;;;;;;13.96;71.93;68325.09;4936536;29;20090;-78
2022/08/31 06:18:57;;;;;;;1.55;0.70;;;;;;;13.95;71.69;68323.97;4932363;29;20050;-78
2022/08/31 06:21:29;;;;;;;3.40;1.08;;;;;;;13.99;71.89;68330.63;4937344;29;20052;-78
2022/08/31 06:23:58;;;;;;;1.58;0.80;;;;;;;;;;4930994;29;20341;-79
2022/08/31 06:26:25;;;;;;;;;;;;;;;14.00;71.98;68329.63;4935574;29;20052;-78
2022/08/31 06:28:53;;;;;;;1.60;0.70;;;;;;;13.98;72.38;68327.38;4931884;29;20434;-79
2022/08/31 06:31:22;;;;;;;2.85;0.90;;;;;;;14.01;72.13;68324.84;4929412;29;20147;-78
2022/08/31 06:33:49;;;;;;;1.50;0.90;;;;;;;14.07;72.21;68339.72;4933327;29;20054;-78
2022/08/31 06:36:17;;;;;;;4.88;1.20;;;;;;;14.15;72.33;68345.56;4935058;29;20098;-78
2022/08/31 06:38:43;;;;;;;1.42;0.60;;;;;;;14.21;72.20;68347.03;4922303;29;20040;-78
2022/08/31 06:41:11;;;;;;;1.85;0.82;;;;;;;;;;4915178;29;20175;-79
2022/08/31 06:43:37;;;;;;;2.45;0.90;;;;;;;;;;4914128;29;20562;-78
2022/08/31 06:46:02;;;;;;;2.88;0.93;;;;;;;;;;4911335;29;20048;-78
2022/08/31 06:48:28;;;;;;;4.40;1.00;;;;;;;14.36;72.53;68369.47;4914615;29;20059;-77
2022/08/31 06:50:57;;;;;;;3.65;0.90;;;;;;;;;;4899282;29;20088;-78
2022/08/31 06:53:22;;;;;;;;;;;;;;;14.53;72.39;68388.28;4934707;29;20478;-78
2022/08/31 06:55:47;;;;;;;3.50;0.90;;;;;;;14.58;72.40;68393.97;4934292;29;19962;-78
2022/08/31 06:58:13;;;;;;;3.10;1.00;;;;;;;14.68;72.41;68404.22;4932793;29;20044;-78
2022/08/31 07:00:38;;;;;;;2.50;1.00;;;;;;;;;;4936785;29;20052;-78
2022/08/31 07:03:21;;;;;;;1.67;0.75;;;;;;;;;;4921711;29;20046;-78
2022/08/31 07:05:47;;;;;;;4.20;1.00;;;;;;;;;;4940694;29;20128;-79
2022/08/31 07:08:12;;;;;;;2.55;1.08;;;;;;;15.03;72.20;68438.16;4939012;29;20103;-78
2022/08/31 07:10:38;;;;;;;3.15;1.30;;;;;;;15.11;71.80;68447.25;4941097;29;20036;-79
2022/08/31 07:13:03;;;;;;;2.90;1.33;;;;;;;15.14;72.23;68455.47;4939164;29;20048;-79
2022/08/31 07:15:28;;;;;;;4.00;1.10;;;;;;;;;;4939798;29;20044;-78
2022/08/31 07:17:54;;;;;;;6.18;1.13;;;;;;;;;;4935433;29;20043;-78
2022/08/31 07:20:19;;;;;;;5.00;1.23;;;;;;;15.27;72.00;68470.28;4941489;29;20044;-78
2022/08/31 07:22:44;;;;;;;3.92;1.20;;;;;;;15.37;72.12;68481.66;4924085;29;20051;-79
2022/08/31 07:25:10;;;;;;;3.78;1.20;;;;;;;;;;4936802;29;20060;-79
2022/08/31 07:27:35;;;;;;;3.72;1.17;;;;;;;;;;4934324;29;20075;-79
2022/08/31 07:30:01;;;;;;;3.28;1.40;;;;;;;;;;4935428;29;20047;-78
2022/08/31 07:32:26;;;;;;;1.95;1.02;;;;;;;;;;4919531;29;20040;-79
2022/08/31 07:34:51;;;;;;;4.22;1.40;;;;;;;;;;4941179;29;20128;-79
2022/08/31 07:42:45;;;;;;;3.55;1.70;;;;;;;;;;4923797;29;20056;-78
2022/08/31 07:45:20;;;;;;;3.67;1.52;;;;;;;;;;4917215;29;20471;-79
2022/08/31 07:47:47;;;;;;;3.42;1.35;;;;;;;16.15;72.11;68562.94;4924792;29;20551;-79
2022/08/31 07:50:15;;;;;;;6.38;1.67;;;;;;;16.18;72.01;68563.66;4923636;29;20040;-79
2022/08/31 07:52:52;;;;;;;5.32;1.55;;;;;;;16.19;71.74;68567.47;4926657;29;20044;-79
2022/08/31 07:55:19;;;;;;;2.83;1.52;;;;;;;;;;4924674;29;20050;-79
2022/08/31 07:57:45;;;;;;;6.57;1.63;;;;;;;16.35;72.76;68585.72;4924028;29;20048;-80
2022/08/31 08:00:13;;;;;;;4.63;1.38;;;;;;;16.56;71.29;68613.91;4912235;29;20069;-79
2022/08/31 08:02:38;;;;;;;4.10;1.40;;;;;;;;;;4914044;29;20044;-78
2022/08/31 08:05:09;;;;;;;4.18;1.73;;;;;;;16.76;71.04;68628.66;4912932;29;20055;-79
2022/08/31 08:07:36;;;;;;;3.72;1.65;;;;;;;16.79;71.38;68634.19;4919149;29;20143;-79
2022/08/31 08:10:03;;;;;;;4.88;1.40;;;;;;;;;;4914662;29;20037;-78
2022/08/31 08:12:30;;;;;;;6.07;1.50;;;;;;;;;;4920298;29;20543;-79
2022/08/31 08:14:57;;;;;;;3.40;1.40;;;;;;;16.95;70.41;68649.19;4925183;29;20408;-78
2022/08/31 08:17:23;;;;;;;2.97;1.50;;;;;;;16.96;70.39;68658.41;4920491;29;20231;-78
2022/08/31 08:19:48;;;;;;;2.65;1.52;;;;;;;16.99;70.45;68662.38;4924981;29;20068;-79
2022/08/31 08:22:13;;;;;;;3.50;1.77;;;;;;;;;;4924224;29;20103;-78
2022/08/31 08:24:39;;;;;;;4.25;1.58;;;;;;;17.14;70.52;68674.09;4924292;29;20055;-79
2022/08/31 08:27:05;;;;;;;4.60;1.70;;;;;;;;;;4925053;29;20040;-78
2022/08/31 08:29:30;;;;;;;5.57;1.50;;;;;;;;;;4923867;29;20369;-78
2022/08/31 08:31:55;;;;;;;4.93;1.43;;;;;;;;;;4919107;29;20041;-79
2022/08/31 08:34:21;;;;;;;2.53;1.40;;;;;;;;;;4922348;29;20293;-78
2022/08/31 08:36:47;;;;;;;5.03;2.10;;;;;;;;;;4921420;29;20285;-79
2022/08/31 08:39:13;;;;;;;3.47;1.70;;;;;;;;;;4924570;29;20126;-78
2022/08/31 08:41:42;;;;;;;3.63;1.52;;;;;;;17.67;69.17;68732.31;4924776;29;20044;-79
2022/08/31 08:44:11;;;;;;;3.95;1.60;;;;;;;17.81;69.05;68754.25;4923166;29;20044;-79
2022/08/31 08:46:42;;;;;;;;;;;;;;;17.84;68.52;68751.72;4922893;29;20052;-78
2022/08/31 08:49:28;;;;;;;3.90;1.33;;;;;;;;;;4924473;29;20177;-79
2022/08/31 08:51:58;;;;;;;5.15;1.38;;;;;;;;;;4924767;29;20480;-78
2022/08/31 08:54:34;;;;;;;6.35;1.85;;;;;;;;;;4924467;29;20044;-79
2022/08/31 08:57:02;;;;;;;4.35;1.50;;;;;;;;;;4905636;29;20051;-78
2022/08/31 08:59:27;;;;;;;6.15;1.65;;;;;;;18.70;67.03;68848.19;4905380;29;20060;-79
2022/08/31 09:01:56;;;;;;;5.55;1.67;;;;;;;;;;4922848;29;20140;-78
2022/08/31 09:04:38;;;;;;;3.67;1.60;;;;;;;19.12;65.46;68894.47;4923948;29;20068;-78
2022/08/31 09:07:21;;;;;;;2.88;1.33;;;;;;;;;;4922130;29;20433;-78
2022/08/31 09:09:59;;;;;;;4.30;1.33;;;;;;;;;;4926380;29;20463;-79
2022/08/31 09:12:47;;;;;;;4.82;1.70;;;;;;;19.36;63.95;68921.31;4942900;29;20108;-79
2022/08/31 09:15:37;;;;;;;3.03;1.35;;;;;;;19.39;64.05;68930.13;4927701;29;20043;-80
2022/08/31 09:18:25;;;;;;;4.07;1.40;;;;;;;19.55;63.58;68942.47;4943206;29;20048;-79
2022/08/31 09:21:21;;;;;;;6.82;1.50;;;;;;;19.61;63.43;68949.31;4942177;29;20418;-79
2022/08/31 09:24:09;;;;;;;3.53;1.20;;;;;;;19.57;64.05;68944.75;4940880;29;20032;-79
2022/08/31 09:26:57;;;;;;;4.95;1.52;;;;;;;19.76;63.78;68963.22;4893615;29;20075;-79
2022/08/31 09:29:26;;;;;;;2.90;1.42;;;;;;;19.89;63.05;68978.06;4934206;29;20403;-78
2022/08/31 09:32:15;;;;;;;3.17;1.30;;;;;;;;;;4943069;29;20040;-78
2022/08/31 09:34:41;;;;;;;3.15;1.20;;;;;;;20.11;62.61;69004.78;4940827;29;20052;-79
2022/08/31 09:37:13;;;;;;;2.88;1.20;;;;;;;20.31;61.72;69021.66;4941560;29;20043;-79
2022/08/31 09:39:39;;;;;;;2.25;1.25;;;;;;;20.32;61.73;69028.78;4942428;29;20075;-79
2022/08/31 09:42:13;;;;;;;2.92;1.27;;;;;;;;;;4941851;29;20047;-78
2022/08/31 09:44:41;;;;;;;5.07;1.42;;;;;;;20.30;61.93;69026.50;4941410;29;20048;-78
2022/08/31 09:47:36;;;;;;;3.50;1.33;;;;;;;20.36;61.38;69033.34;4940613;29;20054;-79
2022/08/31 09:50:04;;;;;;;4.30;1.10;;;;;;;20.33;61.35;69029.94;4940140;29;20035;-78
2022/08/31 09:55:23;;;;;;;2.08;1.23;;;;;;;20.40;61.19;69037.94;4936863;29;20086;-78
2022/08/31 09:57:53;;;;;;;3.22;1.27;;;;;;;20.43;61.06;69041.38;4932952;29;20055;-79
2022/08/31 10:00:34;;;;;;;7.38;1.13;;;;;;;20.57;61.10;69056.84;4931292;29;20062;-78
2022/08/31 10:03:22;;;;;;;2.45;1.20;;;;;;;20.66;59.57;69066.56;4937782;29;20047;-78
2022/08/31 10:05:49;;;;;;;3.83;1.35;;;;;;;;;;4930375;29;20080;-78
2022/08/31 10:08:41;;;;;;;3.58;1.20;;;;;;;20.76;58.92;69077.97;4938113;29;20475;-78
2022/08/31 10:11:13;;;;;;;6.10;1.33;;;;;;;20.81;59.34;69089.13;4934223;29;20403;-78
2022/08/31 10:13:55;;;;;;;4.82;1.45;;;;;;;21.22;58.96;69126.19;4938011;29;20089;-78
2022/08/31 10:16:50;;;;;;;6.53;1.30;;;;;;;21.35;57.39;69144.34;4936998;29;20398;-78
2022/08/31 10:19:29;;;;;;;5.63;1.38;;;;;;;21.27;57.52;69135.19;4939443;29;20068;-78
2022/08/31 10:22:10;;;;;;;4.32;1.40;;;;;;;21.37;57.16;69140.66;4920162;29;20056;-78
2022/08/31 10:25:03;;;;;;;5.43;1.27;;;;;;;21.37;56.73;69146.63;4919475;29;20527;-78
2022/08/31 10:27:37;;;;;;;4.65;1.58;;;;;;;21.50;56.66;69160.94;4927876;29;20050;-78
2022/08/31 10:30:20;;;;;;;2.65;1.15;;;;;;;21.44;57.52;69154.09;4935243;29;20047;-78
2022/08/31 10:33:01;;;;;;;2.90;1.30;;;;;;;21.57;56.51;69168.94;4935259;29;20522;-78
2022/08/31 10:35:44;;;;;;;3.30;1.40;;;;;;;21.52;56.66;69159.94;4915174;29;20393;-78
2022/08/31 10:38:39;;;;;;;3.50;1.33;;;;;;;21.69;56.80;69176.69;4916597;29;20143;-78
2022/08/31 10:41:16;;;;;;;2.72;1.20;;;;;;;;;;4915311;29;20075;-78
2022/08/31 10:44:00;;;;;;;2.80;1.40;;;;;;;21.83;55.02;69194.84;4917961;29;20135;-79
2022/08/31 10:46:29;;;;;;;2.83;1.50;;;;;;;21.82;55.57;69193.72;4938924;28;20126;-79
2022/08/31 10:48:56;;;;;;;;;;;;;;;21.80;55.59;69191.41;4921963;29;20427;-78
2022/08/31 10:51:33;;;;;;;4.82;1.42;;;;;;;21.84;56.55;69198.72;4917047;29;19926;-78
2022/08/31 10:54:27;;;;;;;5.80;1.40;;;;;;;21.99;55.75;69215.31;4918028;29;20044;-78
2022/08/31 10:56:58;;;;;;;5.90;1.50;;;;;;;22.24;55.35;69241.25;4919054;29;20071;-78
2022/08/31 10:59:33;;;;;;;3.53;1.30;;;;;;;22.22;54.59;69238.97;4916690;29;20064;-78
2022/08/31 11:02:29;;;;;;;5.10;1.33;;;;;;;22.46;54.20;69265.28;4914152;29;20040;-78
2022/08/31 11:04:54;;;;;;;2.47;1.33;;;;;;;;;;4918501;29;20046;-78
2022/08/31 11:07:33;;;;;;;1.88;1.20;;;;;;;22.60;53.09;69278.59;4918687;29;20104;-78
2022/08/31 11:10:42;;;;;;;2.65;1.30;;;;;;;22.67;53.04;69288.75;4917319;29;20052;-78
2022/08/31 11:13:26;;;;;;;4.03;1.30;;;;;;;22.91;52.27;69313.53;4903724;29;20043;-78
2022/08/31 11:16:16;;;;;;;3.17;1.27;;;;;;;22.91;51.50;69318.41;4912424;29;20080;-78
2022/08/31 11:19:14;;;;;;;4.72;1.63;;;;;;;22.77;52.85;69299.66;4920209;29;20471;-78
2022/08/31 11:22:09;;;;;;;5.43;1.50;;;;;;;22.73;52.81;69298.34;4905632;29;20056;-78
2022/08/31 11:24:47;;;;;;;2.83;1.23;;;;;;;22.72;52.44;69297.78;4902738;29;20052;-78
2022/08/31 11:27:18;;;;;;;4.38;1.45;;;;;;;22.90;52.01;69317.84;4917652;29;20048;-78
2022/08/31 11:29:59;;;;;;;7.78;1.90;;;;;;;22.96;51.60;69324.72;4909014;29;20044;-78
2022/08/31 11:32:36;;;;;;;4.40;1.30;;;;;;;23.29;50.84;69360.81;4907262;29;20504;-78
2022/08/31 11:35:08;;;;;;;2.72;1.25;;;;;;;23.34;50.54;69366.53;4910770;29;20044;-78
2022/08/31 11:37:53;;;;;;;4.70;1.50;;;;;;;;;;4910876;29;20056;-78
2022/08/31 11:40:40;;;;;;;3.30;1.23;;;;;;;23.30;51.26;69361.94;4905945;29;20056;-78
2022/08/31 11:43:06;;;;;;;5.03;1.52;;;;;;;;;;4907607;29;20129;-78
2022/08/31 11:45:33;;;;;;;2.92;1.38;;;;;;;23.59;49.49;69395.19;4904293;29;20044;-78
2022/08/31 11:47:59;;;;;;;4.18;1.30;;;;;;;23.57;48.99;69390.19;4908007;29;20040;-78
2022/08/31 11:50:45;;;;;;;4.45;1.38;;;;;;;23.53;49.73;69385.59;4908217;29;20051;-78
2022/08/31 11:53:39;;;;;;;5.25;1.38;;;;;;;23.46;50.38;69377.56;4913188;29;20051;-77
2022/08/31 11:56:06;;;;;;;4.72;1.40;;;;;;;23.63;50.55;69399.78;4927827;29;20406;-77
2022/08/31 11:58:37;;;;;;;3.25;1.20;;;;;;;23.81;48.79;69419.84;4916109;29;20044;-78
2022/08/31 12:01:11;;;;;;;3.20;1.20;;;;;;;;;;4913898;29;20036;-78
2022/08/31 12:03:44;;;;;;;6.80;1.55;;;;;;;23.80;48.49;69418.13;4911356;29;20040;-78
2022/08/31 12:06:26;;;;;;;3.30;1.20;;;;;;;24.03;49.05;69439.06;4936181;29;20077;-78
2022/08/31 12:09:17;;;;;;;5.55;1.25;;;;;;;24.21;48.18;69461.25;4939152;29;20054;-79
2022/08/31 12:11:58;;;;;;;3.50;1.30;;;;;;;24.22;47.00;69465.69;4945966;29;20040;-78
2022/08/31 12:14:32;;;;;;;3.55;1.42;;;;;;;24.18;48.24;69457.81;4922104;29;20051;-78
2022/08/31 12:17:20;;;;;;;4.60;1.42;;;;;;;24.35;47.93;69476.75;4939160;29;20066;-78
2022/08/31 12:19:59;;;;;;;3.20;1.30;;;;;;;24.27;47.97;69470.88;4940135;29;20047;-79
2022/08/31 12:25:58;;;;;;;2.38;1.40;;;;;;;24.21;48.17;69458.53;4917756;29;20047;-78
2022/08/31 12:28:26;;;;;;;4.75;1.40;;;;;;;24.45;47.53;69486.06;4931359;29;20059;-78
2022/08/31 12:30:53;;;;;;;6.60;1.20;;;;;;;24.70;46.46;69519.63;4941201;29;20134;-78
2022/08/31 12:33:27;;;;;;;2.55;1.05;;;;;;;24.66;45.73;69512.31;4939763;29;20052;-78
2022/08/31 12:35:56;;;;;;;2.78;1.05;;;;;;;24.68;46.85;69514.59;4940694;29;20122;-78
2022/08/31 12:38:25;;;;;;;2.47;1.17;;;;;;;24.97;45.52;69549.44;4939561;29;20098;-78
2022/08/31 12:40:55;;;;;;;4.88;1.30;;;;;;;25.04;45.58;69554.19;4939100;29;20455;-78
2022/08/31 12:43:22;;;;;;;3.10;1.40;;;;;;;25.18;45.67;69570.25;4924573;29;20135;-77
2022/08/31 12:46:16;;;;;;;3.30;1.23;;;;;;;24.86;46.18;69531.38;4919101;29;20054;-78
2022/08/31 12:48:57;;;;;;;3.88;1.40;;;;;;;24.66;46.82;69511.75;4925543;29;20100;-79
2022/08/31 12:51:44;;;;;;;4.22;1.05;;;;;;;24.92;46.52;69544.28;4919865;29;20374;-78
2022/08/31 12:54:24;;;;;;;3.25;1.08;;;;;;;25.37;45.66;69594.78;4921107;29;20063;-78